Ogle, Kentucky
Current Conditions -  °F | °C
As of 3:06 PM on Saturday 25 Oct 2014 (Local Time) from KLOZ Reporting Station
Broken Clouds Broken Clouds  
Wind Chill: 68°   Ceiling: 4800
Heat Index: 68°   Visibility: 10mi
Dew Point: 51°   Wind: 9mph
Humidity: 55%   Direction: 220°SW
Pressure: 30.01"   Gusts: NA
Location:  37.1101°N, 83.7537°W
Report Text: KLOZ 251906Z AUTO 22008KT 10SM FEW029 BKN048 BKN065 20/11 A3001 RMK AO2 T02000106
Loading
Personal Weather Stations






























Interactive Weather Map
Tropical Storm Tracking
New forecast layout! Learn more

10-Day Weather Forecast

Advertisements
Track Severe Weather on mobile